sensor_id;sensor_type;location;lat;lon;timestamp;temperature;humidity
14475;DHT22;7323;50.848;4.334;2023-03-23T00:01:11;13.70;47.60
14475;DHT22;7323;50.848;4.334;2023-03-23T00:03:39;13.70;47.20
14475;DHT22;7323;50.848;4.334;2023-03-23T00:06:05;13.70;48.60
14475;DHT22;7323;50.848;4.334;2023-03-23T00:08:38;13.70;50.30
14475;DHT22;7323;50.848;4.334;2023-03-23T00:11:23;13.70;50.10
14475;DHT22;7323;50.848;4.334;2023-03-23T00:13:59;13.60;49.90
14475;DHT22;7323;50.848;4.334;2023-03-23T00:16:28;13.60;51.00
14475;DHT22;7323;50.848;4.334;2023-03-23T00:18:57;13.60;52.10
14475;DHT22;7323;50.848;4.334;2023-03-23T00:21:28;13.60;51.40
14475;DHT22;7323;50.848;4.334;2023-03-23T00:24:07;13.60;52.50
14475;DHT22;7323;50.848;4.334;2023-03-23T00:26:36;13.60;52.30
14475;DHT22;7323;50.848;4.334;2023-03-23T00:29:16;13.60;53.30
14475;DHT22;7323;50.848;4.334;2023-03-23T00:31:45;13.60;54.00
14475;DHT22;7323;50.848;4.334;2023-03-23T00:34:19;13.60;54.00
14475;DHT22;7323;50.848;4.334;2023-03-23T00:36:51;13.60;53.20
14475;DHT22;7323;50.848;4.334;2023-03-23T00:39:19;13.60;53.50
14475;DHT22;7323;50.848;4.334;2023-03-23T00:41:46;13.60;53.90
14475;DHT22;7323;50.848;4.334;2023-03-23T00:44:13;13.60;54.70
14475;DHT22;7323;50.848;4.334;2023-03-23T00:46:46;13.60;54.20
14475;DHT22;7323;50.848;4.334;2023-03-23T00:49:18;13.60;54.20
14475;DHT22;7323;50.848;4.334;2023-03-23T00:51:44;13.60;54.80
14475;DHT22;7323;50.848;4.334;2023-03-23T00:54:13;13.60;54.40
14475;DHT22;7323;50.848;4.334;2023-03-23T00:56:39;13.60;55.60
14475;DHT22;7323;50.848;4.334;2023-03-23T00:59:05;13.70;51.70
14475;DHT22;7323;50.848;4.334;2023-03-23T01:01:31;13.70;51.00
14475;DHT22;7323;50.848;4.334;2023-03-23T01:03:58;13.60;53.00
14475;DHT22;7323;50.848;4.334;2023-03-23T01:06:27;13.60;53.80
14475;DHT22;7323;50.848;4.334;2023-03-23T01:08:54;13.50;55.40
14475;DHT22;7323;50.848;4.334;2023-03-23T01:11:20;13.60;54.30
14475;DHT22;7323;50.848;4.334;2023-03-23T01:13:49;13.50;54.60
14475;DHT22;7323;50.848;4.334;2023-03-23T01:16:14;13.50;56.80
14475;DHT22;7323;50.848;4.334;2023-03-23T01:18:43;13.60;58.20
14475;DHT22;7323;50.848;4.334;2023-03-23T01:21:13;13.50;59.20
14475;DHT22;7323;50.848;4.334;2023-03-23T01:23:40;13.60;59.90
14475;DHT22;7323;50.848;4.334;2023-03-23T01:26:13;13.50;58.30
14475;DHT22;7323;50.848;4.334;2023-03-23T01:28:39;13.50;58.70
14475;DHT22;7323;50.848;4.334;2023-03-23T01:31:08;13.50;59.60
14475;DHT22;7323;50.848;4.334;2023-03-23T01:33:34;13.50;59.50
14475;DHT22;7323;50.848;4.334;2023-03-23T01:36:05;13.50;59.80
14475;DHT22;7323;50.848;4.334;2023-03-23T01:38:33;13.50;58.40
14475;DHT22;7323;50.848;4.334;2023-03-23T01:40:59;13.50;58.00
14475;DHT22;7323;50.848;4.334;2023-03-23T01:43:25;13.40;57.50
14475;DHT22;7323;50.848;4.334;2023-03-23T01:45:51;13.50;56.20
14475;DHT22;7323;50.848;4.334;2023-03-23T01:50:48;13.60;54.70
14475;DHT22;7323;50.848;4.334;2023-03-23T01:53:17;13.50;52.90
14475;DHT22;7323;50.848;4.334;2023-03-23T01:55:44;13.60;50.30
14475;DHT22;7323;50.848;4.334;2023-03-23T01:58:14;13.70;49.80
14475;DHT22;7323;50.848;4.334;2023-03-23T02:00:40;13.60;50.30
14475;DHT22;7323;50.848;4.334;2023-03-23T02:03:08;13.50;51.00
14475;DHT22;7323;50.848;4.334;2023-03-23T02:05:39;13.70;50.90
14475;DHT22;7323;50.848;4.334;2023-03-23T02:08:06;13.50;51.30
14475;DHT22;7323;50.848;4.334;2023-03-23T02:10:35;13.50;51.10
14475;DHT22;7323;50.848;4.334;2023-03-23T02:13:04;13.50;49.60
14475;DHT22;7323;50.848;4.334;2023-03-23T02:32:18;13.70;30.20
14475;DHT22;7323;50.848;4.334;2023-03-23T02:34:55;13.70;29.10
14475;DHT22;7323;50.848;4.334;2023-03-23T02:37:46;13.70;29.40
14475;DHT22;7323;50.848;4.334;2023-03-23T02:40:24;13.70;28.90
14475;DHT22;7323;50.848;4.334;2023-03-23T02:42:54;13.60;27.80
14475;DHT22;7323;50.848;4.334;2023-03-23T02:45:22;13.60;27.60
14475;DHT22;7323;50.848;4.334;2023-03-23T02:47:51;13.50;28.80
14475;DHT22;7323;50.848;4.334;2023-03-23T02:50:20;13.50;29.60
14475;DHT22;7323;50.848;4.334;2023-03-23T02:52:48;13.50;30.80
14475;DHT22;7323;50.848;4.334;2023-03-23T02:55:17;13.70;31.00
14475;DHT22;7323;50.848;4.334;2023-03-23T02:57:45;13.50;29.00
14475;DHT22;7323;50.848;4.334;2023-03-23T03:00:17;13.60;29.30
14475;DHT22;7323;50.848;4.334;2023-03-23T03:02:47;13.50;28.90
14475;DHT22;7323;50.848;4.334;2023-03-23T03:10:37;13.50;28.30
14475;DHT22;7323;50.848;4.334;2023-03-23T03:13:20;13.50;27.50
14475;DHT22;7323;50.848;4.334;2023-03-23T03:15:58;13.40;27.10
14475;DHT22;7323;50.848;4.334;2023-03-23T03:20:56;13.50;25.00
14475;DHT22;7323;50.848;4.334;2023-03-23T03:23:26;13.60;22.00
14475;DHT22;7323;50.848;4.334;2023-03-23T03:25:54;13.60;21.20
14475;DHT22;7323;50.848;4.334;2023-03-23T03:28:24;13.60;20.60
14475;DHT22;7323;50.848;4.334;2023-03-23T03:30:55;13.50;20.80
14475;DHT22;7323;50.848;4.334;2023-03-23T03:33:23;13.60;19.50
14475;DHT22;7323;50.848;4.334;2023-03-23T03:35:54;13.60;17.60
14475;DHT22;7323;50.848;4.334;2023-03-23T03:38:21;13.60;17.10
14475;DHT22;7323;50.848;4.334;2023-03-23T03:40:46;13.50;19.70
14475;DHT22;7323;50.848;4.334;2023-03-23T03:43:12;13.50;18.20
14475;DHT22;7323;50.848;4.334;2023-03-23T03:45:38;13.50;17.00
14475;DHT22;7323;50.848;4.334;2023-03-23T03:48:04;13.60;14.10
14475;DHT22;7323;50.848;4.334;2023-03-23T03:50:30;13.60;13.40
14475;DHT22;7323;50.848;4.334;2023-03-23T03:52:56;13.60;14.70
14475;DHT22;7323;50.848;4.334;2023-03-23T03:55:23;13.60;14.90
14475;DHT22;7323;50.848;4.334;2023-03-23T03:57:49;13.50;14.40
14475;DHT22;7323;50.848;4.334;2023-03-23T04:00:15;13.50;15.40
14475;DHT22;7323;50.848;4.334;2023-03-23T04:02:42;13.40;15.20
14475;DHT22;7323;50.848;4.334;2023-03-23T04:05:09;13.50;14.70
14475;DHT22;7323;50.848;4.334;2023-03-23T04:07:36;13.50;14.10
14475;DHT22;7323;50.848;4.334;2023-03-23T04:10:05;13.50;12.70
14475;DHT22;7323;50.848;4.334;2023-03-23T04:12:32;13.40;10.70
14475;DHT22;7323;50.848;4.334;2023-03-23T04:14:58;13.40;11.40
14475;DHT22;7323;50.848;4.334;2023-03-23T04:17:24;13.40;10.10
14475;DHT22;7323;50.848;4.334;2023-03-23T04:19:52;13.50;10.40
14475;DHT22;7323;50.848;4.334;2023-03-23T04:22:18;13.40;11.20
14475;DHT22;7323;50.848;4.334;2023-03-23T04:24:43;13.30;11.90
14475;DHT22;7323;50.848;4.334;2023-03-23T04:27:09;13.40;12.70
14475;DHT22;7323;50.848;4.334;2023-03-23T04:29:35;13.40;10.80
14475;DHT22;7323;50.848;4.334;2023-03-23T04:32:00;13.40;10.20
14475;DHT22;7323;50.848;4.334;2023-03-23T04:34:27;13.30;11.60
14475;DHT22;7323;50.848;4.334;2023-03-23T04:36:53;13.30;13.00
14475;DHT22;7323;50.848;4.334;2023-03-23T04:39:19;13.40;11.90
14475;DHT22;7323;50.848;4.334;2023-03-23T04:41:46;13.30;11.40
14475;DHT22;7323;50.848;4.334;2023-03-23T04:44:12;13.30;12.80
14475;DHT22;7323;50.848;4.334;2023-03-23T04:46:44;13.40;11.80
14475;DHT22;7323;50.848;4.334;2023-03-23T04:49:13;13.30;11.60
14475;DHT22;7323;50.848;4.334;2023-03-23T04:51:39;13.30;12.20
14475;DHT22;7323;50.848;4.334;2023-03-23T04:54:05;13.40;8.90
14475;DHT22;7323;50.848;4.334;2023-03-23T04:56:33;13.50;9.50
14475;DHT22;7323;50.848;4.334;2023-03-23T04:59:00;13.30;11.70
14475;DHT22;7323;50.848;4.334;2023-03-23T05:01:26;13.20;12.40
14475;DHT22;7323;50.848;4.334;2023-03-23T05:03:53;13.20;12.80
14475;DHT22;7323;50.848;4.334;2023-03-23T05:06:18;13.20;14.90
14475;DHT22;7323;50.848;4.334;2023-03-23T05:08:44;13.10;16.00
14475;DHT22;7323;50.848;4.334;2023-03-23T05:11:12;13.20;14.80
14475;DHT22;7323;50.848;4.334;2023-03-23T05:13:40;13.20;11.70
14475;DHT22;7323;50.848;4.334;2023-03-23T05:16:06;13.20;13.20
14475;DHT22;7323;50.848;4.334;2023-03-23T05:18:32;13.20;13.40
14475;DHT22;7323;50.848;4.334;2023-03-23T05:21:00;13.20;12.30
14475;DHT22;7323;50.848;4.334;2023-03-23T05:23:26;13.20;11.70
14475;DHT22;7323;50.848;4.334;2023-03-23T05:25:55;13.20;12.30
14475;DHT22;7323;50.848;4.334;2023-03-23T05:28:24;13.30;10.60
14475;DHT22;7323;50.848;4.334;2023-03-23T05:30:53;13.20;7.30
14475;DHT22;7323;50.848;4.334;2023-03-23T05:33:20;13.20;7.90
14475;DHT22;7323;50.848;4.334;2023-03-23T05:36:24;13.20;9.50
14475;DHT22;7323;50.848;4.334;2023-03-23T05:38:53;13.10;10.10
14475;DHT22;7323;50.848;4.334;2023-03-23T05:41:19;13.10;11.90
14475;DHT22;7323;50.848;4.334;2023-03-23T05:43:45;13.40;7.00
14475;DHT22;7323;50.848;4.334;2023-03-23T05:46:10;13.30;4.90
14475;DHT22;7323;50.848;4.334;2023-03-23T05:48:36;13.30;5.60
14475;DHT22;7323;50.848;4.334;2023-03-23T05:51:02;13.30;6.20
14475;DHT22;7323;50.848;4.334;2023-03-23T05:53:28;13.20;4.80
14475;DHT22;7323;50.848;4.334;2023-03-23T05:56:05;13.20;5.80
14475;DHT22;7323;50.848;4.334;2023-03-23T05:58:32;13.20;4.40
14475;DHT22;7323;50.848;4.334;2023-03-23T06:00:57;13.20;2.20
14475;DHT22;7323;50.848;4.334;2023-03-23T06:03:25;13.20;2.10
14475;DHT22;7323;50.848;4.334;2023-03-23T06:05:52;13.20;1.50
14475;DHT22;7323;50.848;4.334;2023-03-23T06:08:18;13.30;1.00
14475;DHT22;7323;50.848;4.334;2023-03-23T06:10:44;13.20;1.00
14475;DHT22;7323;50.848;4.334;2023-03-23T06:13:10;13.20;1.00
14475;DHT22;7323;50.848;4.334;2023-03-23T06:15:36;13.30;1.80
14475;DHT22;7323;50.848;4.334;2023-03-23T06:18:04;13.30;1.00
14475;DHT22;7323;50.848;4.334;2023-03-23T06:20:31;13.30;1.00
14475;DHT22;7323;50.848;4.334;2023-03-23T06:23:04;13.30;1.00
14475;DHT22;7323;50.848;4.334;2023-03-23T06:25:33;13.30;1.00
14475;DHT22;7323;50.848;4.334;2023-03-23T06:28:00;13.30;1.00
14475;DHT22;7323;50.848;4.334;2023-03-23T06:30:26;13.30;1.00
14475;DHT22;7323;50.848;4.334;2023-03-23T06:32:53;13.30;1.00
14475;DHT22;7323;50.848;4.334;2023-03-23T06:35:19;13.50;1.00
14475;DHT22;7323;50.848;4.334;2023-03-23T06:37:45;13.30;1.00
14475;DHT22;7323;50.848;4.334;2023-03-23T06:40:11;13.40;1.00
14475;DHT22;7323;50.848;4.334;2023-03-23T06:42:37;13.40;1.00
14475;DHT22;7323;50.848;4.334;2023-03-23T06:45:05;13.40;1.00
14475;DHT22;7323;50.848;4.334;2023-03-23T06:47:33;13.60;1.00
14475;DHT22;7323;50.848;4.334;2023-03-23T06:50:00;13.50;1.00
14475;DHT22;7323;50.848;4.334;2023-03-23T06:52:26;13.50;1.40
14475;DHT22;7323;50.848;4.334;2023-03-23T06:54:52;13.40;4.70
14475;DHT22;7323;50.848;4.334;2023-03-23T06:57:19;13.30;12.60
14475;DHT22;7323;50.848;4.334;2023-03-23T06:59:45;13.30;17.10
14475;DHT22;7323;50.848;4.334;2023-03-23T07:02:12;13.30;21.50
14475;DHT22;7323;50.848;4.334;2023-03-23T07:04:40;13.50;22.40
14475;DHT22;7323;50.848;4.334;2023-03-23T07:07:10;13.00;26.40
14475;DHT22;7323;50.848;4.334;2023-03-23T07:09:39;12.30;39.10
14475;DHT22;7323;50.848;4.334;2023-03-23T07:12:05;11.90;52.10
14475;DHT22;7323;50.848;4.334;2023-03-23T07:14:31;11.60;65.20
14475;DHT22;7323;50.848;4.334;2023-03-23T07:16:56;11.50;74.00
14475;DHT22;7323;50.848;4.334;2023-03-23T07:19:22;11.50;83.20
14475;DHT22;7323;50.848;4.334;2023-03-23T07:21:48;11.20;90.90
14475;DHT22;7323;50.848;4.334;2023-03-23T07:24:14;11.00;93.90
14475;DHT22;7323;50.848;4.334;2023-03-23T07:26:41;11.00;96.70
14475;DHT22;7323;50.848;4.334;2023-03-23T07:29:08;11.00;98.80
14475;DHT22;7323;50.848;4.334;2023-03-23T07:31:36;11.10;99.90
14475;DHT22;7323;50.848;4.334;2023-03-23T07:34:03;11.10;99.90
14475;DHT22;7323;50.848;4.334;2023-03-23T07:36:29;11.20;99.90
14475;DHT22;7323;50.848;4.334;2023-03-23T07:38:55;11.30;99.90
14475;DHT22;7323;50.848;4.334;2023-03-23T07:41:22;11.30;99.90
14475;DHT22;7323;50.848;4.334;2023-03-23T07:43:48;11.40;99.90
14475;DHT22;7323;50.848;4.334;2023-03-23T07:46:14;11.50;99.90
14475;DHT22;7323;50.848;4.334;2023-03-23T07:48:42;11.50;99.90
14475;DHT22;7323;50.848;4.334;2023-03-23T07:51:12;11.60;99.90
14475;DHT22;7323;50.848;4.334;2023-03-23T07:53:38;11.60;99.90
14475;DHT22;7323;50.848;4.334;2023-03-23T07:56:04;11.70;99.90
14475;DHT22;7323;50.848;4.334;2023-03-23T07:58:30;11.80;99.90
14475;DHT22;7323;50.848;4.334;2023-03-23T08:00:56;11.90;99.90
14475;DHT22;7323;50.848;4.334;2023-03-23T08:03:23;11.90;99.90
14475;DHT22;7323;50.848;4.334;2023-03-23T08:05:48;12.00;99.90
14475;DHT22;7323;50.848;4.334;2023-03-23T08:08:18;12.10;99.90
14475;DHT22;7323;50.848;4.334;2023-03-23T08:10:44;12.10;97.60
14475;DHT22;7323;50.848;4.334;2023-03-23T08:13:09;12.20;93.30
14475;DHT22;7323;50.848;4.334;2023-03-23T08:15:36;12.20;87.60
14475;DHT22;7323;50.848;4.334;2023-03-23T08:18:03;12.10;78.50
14475;DHT22;7323;50.848;4.334;2023-03-23T08:20:29;12.00;74.00
14475;DHT22;7323;50.848;4.334;2023-03-23T08:22:56;12.00;72.70
14475;DHT22;7323;50.848;4.334;2023-03-23T08:25:23;12.00;76.70
14475;DHT22;7323;50.848;4.334;2023-03-23T08:27:50;11.90;76.00
14475;DHT22;7323;50.848;4.334;2023-03-23T08:30:18;11.90;75.00
14475;DHT22;7323;50.848;4.334;2023-03-23T08:32:48;11.90;79.20
14475;DHT22;7323;50.848;4.334;2023-03-23T08:35:15;11.90;81.80
14475;DHT22;7323;50.848;4.334;2023-03-23T08:37:41;11.80;85.70
14475;DHT22;7323;50.848;4.334;2023-03-23T08:40:14;11.80;88.30
14475;DHT22;7323;50.848;4.334;2023-03-23T08:42:42;11.80;84.00
14475;DHT22;7323;50.848;4.334;2023-03-23T08:45:12;11.80;84.00
14475;DHT22;7323;50.848;4.334;2023-03-23T08:47:38;11.70;87.00
14475;DHT22;7323;50.848;4.334;2023-03-23T08:50:05;11.60;92.40
14475;DHT22;7323;50.848;4.334;2023-03-23T08:52:31;11.60;93.10
14475;DHT22;7323;50.848;4.334;2023-03-23T08:54:57;11.70;95.20
14475;DHT22;7323;50.848;4.334;2023-03-23T08:57:24;11.60;97.30
14475;DHT22;7323;50.848;4.334;2023-03-23T08:59:50;11.70;98.40
14475;DHT22;7323;50.848;4.334;2023-03-23T09:02:20;11.70;98.50
14475;DHT22;7323;50.848;4.334;2023-03-23T09:04:45;11.70;99.10
14475;DHT22;7323;50.848;4.334;2023-03-23T09:07:14;11.90;98.00
14475;DHT22;7323;50.848;4.334;2023-03-23T09:09:41;11.90;98.40
14475;DHT22;7323;50.848;4.334;2023-03-23T09:12:08;11.90;98.00
14475;DHT22;7323;50.848;4.334;2023-03-23T09:14:35;12.00;97.80
14475;DHT22;7323;50.848;4.334;2023-03-23T09:17:02;12.00;98.80
14475;DHT22;7323;50.848;4.334;2023-03-23T09:19:29;12.00;99.90
14475;DHT22;7323;50.848;4.334;2023-03-23T09:21:55;12.10;99.90
14475;DHT22;7323;50.848;4.334;2023-03-23T09:24:21;12.10;99.90
14475;DHT22;7323;50.848;4.334;2023-03-23T09:26:48;12.20;99.90
14475;DHT22;7323;50.848;4.334;2023-03-23T09:29:14;12.20;99.90
14475;DHT22;7323;50.848;4.334;2023-03-23T09:31:40;12.10;99.90
14475;DHT22;7323;50.848;4.334;2023-03-23T09:34:07;12.10;99.90
14475;DHT22;7323;50.848;4.334;2023-03-23T09:36:36;12.10;99.90
14475;DHT22;7323;50.848;4.334;2023-03-23T09:39:02;12.20;99.90
14475;DHT22;7323;50.848;4.334;2023-03-23T09:41:57;12.30;99.90
14475;DHT22;7323;50.848;4.334;2023-03-23T09:47:25;12.40;99.90
14475;DHT22;7323;50.848;4.334;2023-03-23T09:50:09;12.60;99.60
14475;DHT22;7323;50.848;4.334;2023-03-23T09:52:49;12.60;98.80
14475;DHT22;7323;50.848;4.334;2023-03-23T09:55:17;12.60;99.80
14475;DHT22;7323;50.848;4.334;2023-03-23T09:58:14;12.60;99.90
14475;DHT22;7323;50.848;4.334;2023-03-23T10:00:55;12.60;99.90
14475;DHT22;7323;50.848;4.334;2023-03-23T10:03:27;12.70;99.80
14475;DHT22;7323;50.848;4.334;2023-03-23T10:05:55;12.90;98.90
14475;DHT22;7323;50.848;4.334;2023-03-23T10:08:24;12.90;98.00
14475;DHT22;7323;50.848;4.334;2023-03-23T10:11:00;12.90;98.00
14475;DHT22;7323;50.848;4.334;2023-03-23T10:13:56;13.00;97.60
14475;DHT22;7323;50.848;4.334;2023-03-23T10:16:30;13.10;95.70
14475;DHT22;7323;50.848;4.334;2023-03-23T10:19:04;13.10;96.10
14475;DHT22;7323;50.848;4.334;2023-03-23T10:21:38;13.20;95.00
14475;DHT22;7323;50.848;4.334;2023-03-23T10:24:10;13.40;90.80
14475;DHT22;7323;50.848;4.334;2023-03-23T10:31:56;13.50;88.10
14475;DHT22;7323;50.848;4.334;2023-03-23T10:34:57;13.40;89.70
14475;DHT22;7323;50.848;4.334;2023-03-23T10:37:36;13.40;92.60
14475;DHT22;7323;50.848;4.334;2023-03-23T10:40:06;13.50;91.80
14475;DHT22;7323;50.848;4.334;2023-03-23T10:42:37;13.50;89.70
14475;DHT22;7323;50.848;4.334;2023-03-23T10:45:24;13.60;90.50
14475;DHT22;7323;50.848;4.334;2023-03-23T10:48:09;13.70;89.20
14475;DHT22;7323;50.848;4.334;2023-03-23T10:50:37;13.80;87.00
14475;DHT22;7323;50.848;4.334;2023-03-23T10:53:21;14.00;87.40
14475;DHT22;7323;50.848;4.334;2023-03-23T10:55:49;14.00;82.00
14475;DHT22;7323;50.848;4.334;2023-03-23T10:58:34;14.20;74.10
14475;DHT22;7323;50.848;4.334;2023-03-23T11:01:02;14.10;74.50
14475;DHT22;7323;50.848;4.334;2023-03-23T11:03:42;14.20;76.00
14475;DHT22;7323;50.848;4.334;2023-03-23T11:06:11;14.30;64.80
14475;DHT22;7323;50.848;4.334;2023-03-23T11:08:58;14.30;60.10
14475;DHT22;7323;50.848;4.334;2023-03-23T11:11:28;14.40;58.60
14475;DHT22;7323;50.848;4.334;2023-03-23T11:14:00;14.50;55.60
14475;DHT22;7323;50.848;4.334;2023-03-23T11:16:34;14.50;57.60
14475;DHT22;7323;50.848;4.334;2023-03-23T11:19:25;14.50;58.40
14475;DHT22;7323;50.848;4.334;2023-03-23T11:21:53;14.60;51.40
14475;DHT22;7323;50.848;4.334;2023-03-23T11:24:25;14.60;46.00
14475;DHT22;7323;50.848;4.334;2023-03-23T11:26:52;14.70;49.60
14475;DHT22;7323;50.848;4.334;2023-03-23T11:29:24;14.80;50.40
14475;DHT22;7323;50.848;4.334;2023-03-23T11:34:31;14.70;45.10
14475;DHT22;7323;50.848;4.334;2023-03-23T11:37:34;14.80;29.80
14475;DHT22;7323;50.848;4.334;2023-03-23T11:45:20;15.20;99.90
14475;DHT22;7323;50.848;4.334;2023-03-23T11:48:04;15.50;99.90
14475;DHT22;7323;50.848;4.334;2023-03-23T11:58:18;15.40;99.90
14475;DHT22;7323;50.848;4.334;2023-03-23T12:01:09;15.40;99.90
14475;DHT22;7323;50.848;4.334;2023-03-23T12:07:04;15.50;99.90
14475;DHT22;7323;50.848;4.334;2023-03-23T12:09:46;15.40;99.90
14475;DHT22;7323;50.848;4.334;2023-03-23T12:15:26;15.70;99.90
14475;DHT22;7323;50.848;4.334;2023-03-23T12:23:33;16.00;99.90
14475;DHT22;7323;50.848;4.334;2023-03-23T12:26:20;15.90;99.90
14475;DHT22;7323;50.848;4.334;2023-03-23T12:31:56;15.90;99.90
14475;DHT22;7323;50.848;4.334;2023-03-23T12:34:29;16.00;99.90
14475;DHT22;7323;50.848;4.334;2023-03-23T12:40:02;16.20;99.90
14475;DHT22;7323;50.848;4.334;2023-03-23T12:45:52;16.30;99.90
14475;DHT22;7323;50.848;4.334;2023-03-23T12:48:26;16.40;99.90
14475;DHT22;7323;50.848;4.334;2023-03-23T12:51:04;16.50;99.90
14475;DHT22;7323;50.848;4.334;2023-03-23T12:54:09;16.50;99.90
14475;DHT22;7323;50.848;4.334;2023-03-23T12:56:58;16.50;99.90
14475;DHT22;7323;50.848;4.334;2023-03-23T12:59:54;16.30;99.90
14475;DHT22;7323;50.848;4.334;2023-03-23T13:02:31;16.10;99.90
14475;DHT22;7323;50.848;4.334;2023-03-23T13:05:07;16.00;99.90
14475;DHT22;7323;50.848;4.334;2023-03-23T13:07:59;15.90;99.90
14475;DHT22;7323;50.848;4.334;2023-03-23T13:10:40;15.80;99.90
14475;DHT22;7323;50.848;4.334;2023-03-23T13:13:21;15.80;99.90
14475;DHT22;7323;50.848;4.334;2023-03-23T13:18:55;16.00;99.90
14475;DHT22;7323;50.848;4.334;2023-03-23T13:21:32;16.10;99.90
14475;DHT22;7323;50.848;4.334;2023-03-23T13:24:15;16.30;99.90
14475;DHT22;7323;50.848;4.334;2023-03-23T13:26:43;16.30;99.90
14475;DHT22;7323;50.848;4.334;2023-03-23T13:31:40;16.40;99.90
14475;DHT22;7323;50.848;4.334;2023-03-23T13:34:24;16.50;99.90
14475;DHT22;7323;50.848;4.334;2023-03-23T13:37:02;16.70;99.90
14475;DHT22;7323;50.848;4.334;2023-03-23T13:39:50;16.80;99.90
14475;DHT22;7323;50.848;4.334;2023-03-23T13:42:21;16.80;99.90
14475;DHT22;7323;50.848;4.334;2023-03-23T13:49:58;16.60;99.90
14475;DHT22;7323;50.848;4.334;2023-03-23T13:57:58;16.20;99.90
14475;DHT22;7323;50.848;4.334;2023-03-23T14:00:44;16.00;99.90
14475;DHT22;7323;50.848;4.334;2023-03-23T14:03:24;16.00;99.90
14475;DHT22;7323;50.848;4.334;2023-03-23T14:10:59;15.60;99.90
14475;DHT22;7323;50.848;4.334;2023-03-23T14:16:24;15.50;99.90
14475;DHT22;7323;50.848;4.334;2023-03-23T14:18:55;15.70;99.90
14475;DHT22;7323;50.848;4.334;2023-03-23T14:21:38;15.80;99.90
14475;DHT22;7323;50.848;4.334;2023-03-23T14:24:32;15.80;99.90
14475;DHT22;7323;50.848;4.334;2023-03-23T14:29:35;15.90;99.90
14475;DHT22;7323;50.848;4.334;2023-03-23T14:32:01;15.80;99.90
14475;DHT22;7323;50.848;4.334;2023-03-23T14:34:30;16.00;99.90
14475;DHT22;7323;50.848;4.334;2023-03-23T14:36:57;15.90;99.90
14475;DHT22;7323;50.848;4.334;2023-03-23T14:39:24;15.90;99.90
14475;DHT22;7323;50.848;4.334;2023-03-23T14:41:53;15.80;99.90
14475;DHT22;7323;50.848;4.334;2023-03-23T14:44:24;15.80;99.90
14475;DHT22;7323;50.848;4.334;2023-03-23T14:46:54;15.50;99.90
14475;DHT22;7323;50.848;4.334;2023-03-23T14:49:30;15.50;99.90
14475;DHT22;7323;50.848;4.334;2023-03-23T14:51:57;15.50;99.90
14475;DHT22;7323;50.848;4.334;2023-03-23T14:54:28;15.50;99.90
14475;DHT22;7323;50.848;4.334;2023-03-23T14:56:55;15.60;99.90
14475;DHT22;7323;50.848;4.334;2023-03-23T14:59:22;15.80;99.90
14475;DHT22;7323;50.848;4.334;2023-03-23T15:01:49;15.80;99.90
14475;DHT22;7323;50.848;4.334;2023-03-23T15:04:21;15.90;99.90
14475;DHT22;7323;50.848;4.334;2023-03-23T15:06:53;16.20;99.90
14475;DHT22;7323;50.848;4.334;2023-03-23T15:09:22;16.40;99.90
14475;DHT22;7323;50.848;4.334;2023-03-23T15:11:55;16.50;99.90
14475;DHT22;7323;50.848;4.334;2023-03-23T15:14:30;16.30;99.90
14475;DHT22;7323;50.848;4.334;2023-03-23T15:16:58;16.50;99.90
14475;DHT22;7323;50.848;4.334;2023-03-23T15:19:36;16.60;99.90
14475;DHT22;7323;50.848;4.334;2023-03-23T15:22:23;16.60;99.90
14475;DHT22;7323;50.848;4.334;2023-03-23T15:24:51;16.70;99.90
14475;DHT22;7323;50.848;4.334;2023-03-23T15:27:34;16.50;99.90
14475;DHT22;7323;50.848;4.334;2023-03-23T15:30:29;16.40;99.90
14475;DHT22;7323;50.848;4.334;2023-03-23T15:33:06;16.40;99.90
14475;DHT22;7323;50.848;4.334;2023-03-23T15:35:38;16.30;99.90
14475;DHT22;7323;50.848;4.334;2023-03-23T15:38:06;16.30;99.90
14475;DHT22;7323;50.848;4.334;2023-03-23T15:40:40;16.20;99.90
14475;DHT22;7323;50.848;4.334;2023-03-23T15:43:27;16.10;99.90
14475;DHT22;7323;50.848;4.334;2023-03-23T15:46:19;16.10;99.90
14475;DHT22;7323;50.848;4.334;2023-03-23T15:49:08;16.10;99.90
14475;DHT22;7323;50.848;4.334;2023-03-23T15:51:39;16.10;99.90
14475;DHT22;7323;50.848;4.334;2023-03-23T15:54:14;16.10;99.90
14475;DHT22;7323;50.848;4.334;2023-03-23T15:56:41;16.10;99.90
14475;DHT22;7323;50.848;4.334;2023-03-23T15:59:08;16.30;99.90
14475;DHT22;7323;50.848;4.334;2023-03-23T16:01:34;16.60;99.90
14475;DHT22;7323;50.848;4.334;2023-03-23T16:04:08;17.00;99.90
14475;DHT22;7323;50.848;4.334;2023-03-23T16:06:35;17.30;99.90
14475;DHT22;7323;50.848;4.334;2023-03-23T16:09:03;17.20;99.90
14475;DHT22;7323;50.848;4.334;2023-03-23T16:11:30;16.90;99.90
14475;DHT22;7323;50.848;4.334;2023-03-23T16:13:57;16.60;99.90
14475;DHT22;7323;50.848;4.334;2023-03-23T16:16:36;16.40;99.90
14475;DHT22;7323;50.848;4.334;2023-03-23T16:19:02;16.60;99.90
14475;DHT22;7323;50.848;4.334;2023-03-23T16:21:28;17.40;99.90
14475;DHT22;7323;50.848;4.334;2023-03-23T16:23:54;17.80;99.90
14475;DHT22;7323;50.848;4.334;2023-03-23T16:26:20;17.90;99.90
14475;DHT22;7323;50.848;4.334;2023-03-23T16:28:46;18.50;99.90
14475;DHT22;7323;50.848;4.334;2023-03-23T16:31:13;19.00;99.90
14475;DHT22;7323;50.848;4.334;2023-03-23T16:33:39;19.30;99.90
14475;DHT22;7323;50.848;4.334;2023-03-23T16:36:05;19.50;99.90
14475;DHT22;7323;50.848;4.334;2023-03-23T16:38:31;19.70;99.90
14475;DHT22;7323;50.848;4.334;2023-03-23T16:40:56;19.50;99.90
14475;DHT22;7323;50.848;4.334;2023-03-23T16:43:23;18.80;99.90
14475;DHT22;7323;50.848;4.334;2023-03-23T16:45:49;18.00;99.90
14475;DHT22;7323;50.848;4.334;2023-03-23T16:48:16;17.70;99.90
14475;DHT22;7323;50.848;4.334;2023-03-23T16:50:44;17.60;99.90
14475;DHT22;7323;50.848;4.334;2023-03-23T16:53:12;17.60;99.90
14475;DHT22;7323;50.848;4.334;2023-03-23T16:55:38;17.60;99.90
14475;DHT22;7323;50.848;4.334;2023-03-23T17:01:00;16.70;99.90
14475;DHT22;7323;50.848;4.334;2023-03-23T17:03:27;16.40;99.90
14475;DHT22;7323;50.848;4.334;2023-03-23T17:05:52;16.10;99.90
14475;DHT22;7323;50.848;4.334;2023-03-23T17:08:19;16.00;99.90
14475;DHT22;7323;50.848;4.334;2023-03-23T17:10:49;16.10;99.90
14475;DHT22;7323;50.848;4.334;2023-03-23T17:13:15;15.90;99.90
14475;DHT22;7323;50.848;4.334;2023-03-23T17:15:44;16.10;99.90
14475;DHT22;7323;50.848;4.334;2023-03-23T17:18:10;15.80;99.90
14475;DHT22;7323;50.848;4.334;2023-03-23T17:20:36;15.70;99.90
14475;DHT22;7323;50.848;4.334;2023-03-23T17:23:06;15.80;99.90
14475;DHT22;7323;50.848;4.334;2023-03-23T17:25:43;15.80;99.90
14475;DHT22;7323;50.848;4.334;2023-03-23T17:28:09;15.70;99.90
14475;DHT22;7323;50.848;4.334;2023-03-23T17:30:34;15.70;99.90
14475;DHT22;7323;50.848;4.334;2023-03-23T17:33:00;15.70;99.90
14475;DHT22;7323;50.848;4.334;2023-03-23T17:35:26;15.60;99.90
14475;DHT22;7323;50.848;4.334;2023-03-23T17:37:58;15.60;99.90
14475;DHT22;7323;50.848;4.334;2023-03-23T17:40:26;15.60;99.90
14475;DHT22;7323;50.848;4.334;2023-03-23T17:42:51;15.60;99.90
14475;DHT22;7323;50.848;4.334;2023-03-23T17:48:08;15.60;99.90
14475;DHT22;7323;50.848;4.334;2023-03-23T17:50:34;15.60;99.90
14475;DHT22;7323;50.848;4.334;2023-03-23T17:53:06;15.60;99.90